Time,TemperatureF,DewpointF,PressureIn,WindDirection,WindDirectionDegrees,WindSpeedMPH,WindSpeedGustMPH,Humidity,HourlyPrecipIn,Conditions,Clouds,dailyrainin,SoftwareType,DateUTC
2013-05-17 00:00:00,67.3,63.3,29.90,SSE,165,0.0,5.8,87,0.00,,,0.01,VWS V14.01,2013-05-17 05:00:00,
2013-05-17 00:13:00,67.2,63.2,29.90,SSE,148,0.0,2.3,87,0.00,,,0.00,VWS V14.01,2013-05-17 05:13:00,
2013-05-17 00:15:00,67.2,63.2,29.90,SSE,148,0.0,2.3,87,0.00,,,0.00,VWS V14.01,2013-05-17 05:15:00,
2013-05-17 00:28:00,67.3,63.0,29.90,SSW,203,1.1,2.3,86,0.00,,,0.00,VWS V14.01,2013-05-17 05:28:00,
2013-05-17 00:30:00,67.3,63.0,29.90,SSW,203,1.1,2.3,86,0.00,,,0.00,VWS V14.01,2013-05-17 05:30:00,
2013-05-17 00:43:00,67.6,62.6,29.90,SSE,153,0.0,4.6,84,0.00,,,0.00,VWS V14.01,2013-05-17 05:43:00,
2013-05-17 00:45:00,67.6,62.6,29.90,SSE,153,0.0,4.6,84,0.00,,,0.00,VWS V14.01,2013-05-17 05:45:00,
2013-05-17 00:58:00,67.6,62.6,29.90,ESE,116,2.3,5.8,84,0.00,,,0.00,VWS V14.01,2013-05-17 05:58:00,
2013-05-17 01:00:00,67.6,62.6,29.90,ESE,116,2.3,5.8,84,0.00,,,0.00,VWS V14.01,2013-05-17 06:00:00,
2013-05-17 01:13:00,67.5,62.5,29.90,SSE,161,1.1,4.6,84,0.00,,,0.00,VWS V14.01,2013-05-17 06:13:00,
2013-05-17 01:15:00,67.5,62.5,29.90,SSE,161,1.1,4.6,84,0.00,,,0.00,VWS V14.01,2013-05-17 06:15:00,
2013-05-17 01:28:00,67.4,62.7,29.90,SE,130,0.0,5.8,85,0.00,,,0.00,VWS V14.01,2013-05-17 06:28:00,
2013-05-17 01:30:00,67.4,62.7,29.90,SE,130,0.0,5.8,85,0.00,,,0.00,VWS V14.01,2013-05-17 06:30:00,
2013-05-17 01:43:00,67.2,62.5,29.89,SE,135,1.1,3.4,85,0.00,,,0.00,VWS V14.01,2013-05-17 06:43:00,
2013-05-17 01:45:00,67.2,62.5,29.89,SE,135,1.1,3.5,85,0.00,,,0.00,VWS V14.01,2013-05-17 06:45:00,
2013-05-17 01:58:00,67.1,62.8,29.89,ESE,108,0.0,5.8,86,0.00,,,0.00,VWS V14.01,2013-05-17 06:58:00,
2013-05-17 02:00:00,67.1,62.8,29.89,ESE,108,0.0,5.8,86,0.00,,,0.00,VWS V14.01,2013-05-17 07:00:00,
2013-05-17 02:13:00,67.0,62.7,29.89,SSE,151,0.0,4.6,86,0.00,,,0.00,VWS V14.01,2013-05-17 07:13:00,
2013-05-17 02:15:00,67.0,62.7,29.89,SSE,151,0.0,4.6,86,0.00,,,0.00,VWS V14.01,2013-05-17 07:15:00,
2013-05-17 02:28:00,66.9,62.9,29.89,SE,124,0.0,3.4,87,0.00,,,0.00,VWS V14.01,2013-05-17 07:28:00,
2013-05-17 02:30:00,66.9,62.9,29.89,SE,124,0.0,3.5,87,0.00,,,0.00,VWS V14.01,2013-05-17 07:30:00,
2013-05-17 02:43:00,66.9,62.9,29.88,ESE,119,1.1,3.4,87,0.00,,,0.00,VWS V14.01,2013-05-17 07:43:00,
2013-05-17 02:45:00,66.9,62.9,29.88,ESE,119,1.1,3.5,87,0.00,,,0.00,VWS V14.01,2013-05-17 07:45:00,
2013-05-17 02:58:00,67.0,63.3,29.88,SSE,156,1.1,4.6,88,0.00,,,0.00,VWS V14.01,2013-05-17 07:58:00,
2013-05-17 03:00:00,67.0,63.3,29.88,SSE,156,1.1,4.6,88,0.00,,,0.00,VWS V14.01,2013-05-17 08:00:00,
2013-05-17 03:13:00,67.1,63.4,29.88,ESE,107,3.4,5.8,88,0.00,,,0.00,VWS V14.01,2013-05-17 08:13:00,
2013-05-17 03:15:00,67.1,63.4,29.88,ESE,107,3.5,5.8,88,0.00,,,0.00,VWS V14.01,2013-05-17 08:15:00,
2013-05-17 03:28:00,67.0,63.7,29.88,SE,131,0.0,6.9,89,0.00,,,0.00,VWS V14.01,2013-05-17 08:28:00,
2013-05-17 03:30:00,67.0,63.7,29.88,SE,131,0.0,6.9,89,0.00,,,0.00,VWS V14.01,2013-05-17 08:30:00,
2013-05-17 03:43:00,67.4,64.1,29.88,SE,133,2.3,8.1,89,0.00,,,0.00,VWS V14.01,2013-05-17 08:43:00,
2013-05-17 03:45:00,67.4,64.1,29.88,SE,133,2.3,8.1,89,0.00,,,0.00,VWS V14.01,2013-05-17 08:45:00,
2013-05-17 03:58:00,68.2,64.5,29.88,SSW,200,2.3,10.3,88,0.00,,,0.00,VWS V14.01,2013-05-17 08:58:00,
2013-05-17 04:00:00,68.2,64.5,29.88,SSW,200,2.3,10.4,88,0.00,,,0.00,VWS V14.01,2013-05-17 09:00:00,
2013-05-17 04:13:00,68.6,65.2,29.88,SE,137,4.6,10.3,89,0.00,,,0.00,VWS V14.01,2013-05-17 09:13:00,
2013-05-17 04:15:00,68.6,65.2,29.88,SE,137,4.6,10.4,89,0.00,,,0.00,VWS V14.01,2013-05-17 09:15:00,
2013-05-17 04:28:00,68.0,65.0,29.88,East,91,2.3,9.2,90,0.01,,,0.01,VWS V14.01,2013-05-17 09:28:00,
2013-05-17 04:30:00,68.0,65.0,29.88,East,91,2.3,9.2,90,0.01,,,0.01,VWS V14.01,2013-05-17 09:30:00,
2013-05-17 04:43:00,67.4,65.0,29.88,SSW,205,3.4,5.8,92,0.03,,,0.03,VWS V14.01,2013-05-17 09:43:00,
2013-05-17 04:45:00,67.4,65.0,29.88,SSW,205,3.5,5.8,92,0.03,,,0.03,VWS V14.01,2013-05-17 09:45:00,
2013-05-17 04:58:00,67.1,65.0,29.88,SSE,152,1.1,4.6,93,0.04,,,0.04,VWS V14.01,2013-05-17 09:58:00,
2013-05-17 05:00:00,67.1,65.0,29.88,SSE,152,1.1,4.6,93,0.04,,,0.04,VWS V14.01,2013-05-17 10:00:00,
2013-05-17 05:13:00,66.9,65.1,29.88,ESE,121,1.1,3.4,94,0.04,,,0.04,VWS V14.01,2013-05-17 10:13:00,
2013-05-17 05:15:00,66.9,65.1,29.88,ESE,121,1.1,3.5,94,0.04,,,0.04,VWS V14.01,2013-05-17 10:15:00,
2013-05-17 05:28:00,67.0,65.2,29.88,WSW,249,1.1,4.6,94,0.04,,,0.04,VWS V14.01,2013-05-17 10:28:00,
2013-05-17 05:30:00,67.0,65.2,29.88,WSW,249,1.1,4.6,94,0.04,,,0.04,VWS V14.01,2013-05-17 10:30:00,
2013-05-17 05:43:00,67.1,65.3,29.88,South,173,0.0,9.2,94,0.03,,,0.04,VWS V14.01,2013-05-17 10:43:00,
2013-05-17 05:45:00,67.1,65.3,29.88,South,173,0.0,9.2,94,0.03,,,0.04,VWS V14.01,2013-05-17 10:45:00,
2013-05-17 05:58:00,67.2,65.4,29.89,South,187,2.3,9.2,94,0.02,,,0.05,VWS V14.01,2013-05-17 10:58:00,
2013-05-17 06:00:00,67.2,65.4,29.89,South,187,2.3,9.2,94,0.02,,,0.05,VWS V14.01,2013-05-17 11:00:00,
2013-05-17 06:13:00,67.2,65.4,29.89,SSW,208,2.3,8.1,94,0.01,,,0.05,VWS V14.01,2013-05-17 11:13:00,
2013-05-17 06:15:00,67.2,65.4,29.89,SSW,208,2.3,8.1,94,0.01,,,0.05,VWS V14.01,2013-05-17 11:15:00,
2013-05-17 06:28:00,67.2,65.4,29.89,SSW,193,2.3,5.8,94,0.03,,,0.07,VWS V14.01,2013-05-17 11:28:00,
2013-05-17 06:30:00,67.2,65.4,29.89,SSW,193,2.3,5.8,94,0.03,,,0.07,VWS V14.01,2013-05-17 11:30:00,
2013-05-17 06:43:00,66.9,64.8,29.90,South,188,2.3,10.3,93,0.06,,,0.10,VWS V14.01,2013-05-17 11:43:00,
2013-05-17 06:45:00,66.9,64.8,29.90,South,188,2.3,10.4,93,0.06,,,0.10,VWS V14.01,2013-05-17 11:45:00,
2013-05-17 06:58:00,66.6,64.2,29.90,SSW,203,2.3,13.8,92,0.06,,,0.10,VWS V14.01,2013-05-17 11:58:00,
2013-05-17 07:00:00,66.6,64.2,29.90,SSW,203,2.3,13.8,92,0.06,,,0.10,VWS V14.01,2013-05-17 12:00:00,
2013-05-17 07:13:00,66.2,64.1,29.91,SSW,207,6.9,10.3,93,0.05,,,0.10,VWS V14.01,2013-05-17 12:13:00,
2013-05-17 07:15:00,66.2,64.1,29.91,SSW,207,6.9,10.4,93,0.05,,,0.10,VWS V14.01,2013-05-17 12:15:00,
2013-05-17 07:28:00,66.1,64.3,29.90,SE,124,0.0,6.9,94,0.06,,,0.11,VWS V14.01,2013-05-17 12:28:00,
2013-05-17 07:30:00,66.1,64.3,29.90,SE,124,0.0,6.9,94,0.06,,,0.11,VWS V14.01,2013-05-17 12:30:00,
2013-05-17 07:43:00,66.1,64.3,29.90,SE,127,6.9,6.9,94,0.04,,,0.11,VWS V14.01,2013-05-17 12:43:00,
2013-05-17 07:45:00,66.1,64.3,29.90,SE,127,6.9,6.9,94,0.04,,,0.11,VWS V14.01,2013-05-17 12:45:00,
2013-05-17 07:58:00,66.2,64.4,29.90,SE,127,4.6,6.9,94,0.02,,,0.12,VWS V14.01,2013-05-17 12:58:00,
2013-05-17 08:00:00,66.2,64.4,29.90,SE,127,4.6,6.9,94,0.02,,,0.12,VWS V14.01,2013-05-17 13:00:00,
2013-05-17 08:13:00,66.2,64.4,29.90,East,89,2.3,8.1,94,0.02,,,0.12,VWS V14.01,2013-05-17 13:13:00,
2013-05-17 08:15:00,66.2,64.4,29.90,East,89,2.3,8.1,94,0.02,,,0.12,VWS V14.01,2013-05-17 13:15:00,
2013-05-17 08:28:00,66.2,64.4,29.91,ESE,123,0.0,8.1,94,0.02,,,0.12,VWS V14.01,2013-05-17 13:28:00,
2013-05-17 08:30:00,66.2,64.4,29.91,ESE,123,0.0,8.1,94,0.02,,,0.12,VWS V14.01,2013-05-17 13:30:00,
2013-05-17 08:43:00,65.9,64.1,29.91,ESE,118,3.4,5.8,94,0.06,,,0.17,VWS V14.01,2013-05-17 13:43:00,
2013-05-17 08:45:00,65.9,64.1,29.91,ESE,118,3.5,5.8,94,0.06,,,0.17,VWS V14.01,2013-05-17 13:45:00,
2013-05-17 08:58:00,65.7,64.2,29.91,SW,215,1.1,5.8,95,0.08,,,0.19,VWS V14.01,2013-05-17 13:58:00,
2013-05-17 09:00:00,65.7,64.2,29.91,SW,215,1.1,5.8,95,0.08,,,0.19,VWS V14.01,2013-05-17 14:00:00,
2013-05-17 09:13:00,65.6,64.1,29.90,ESE,122,1.1,5.8,95,0.09,,,0.21,VWS V14.01,2013-05-17 14:13:00,
2013-05-17 09:15:00,65.6,64.1,29.90,ESE,122,1.1,5.8,95,0.09,,,0.21,VWS V14.01,2013-05-17 14:15:00,
2013-05-17 09:28:00,65.7,64.2,29.90,SSE,166,0.0,4.6,95,0.09,,,0.21,VWS V14.01,2013-05-17 14:28:00,
2013-05-17 09:30:00,65.7,64.2,29.90,SSE,166,0.0,4.6,95,0.09,,,0.21,VWS V14.01,2013-05-17 14:30:00,
2013-05-17 09:43:00,65.7,64.5,29.90,ESE,102,1.1,3.4,96,0.11,,,0.23,VWS V14.01,2013-05-17 14:43:00,
2013-05-17 09:45:00,65.7,64.5,29.90,ESE,102,1.1,3.5,96,0.11,,,0.23,VWS V14.01,2013-05-17 14:45:00,
2013-05-17 09:58:00,66.0,64.8,29.90,South,186,2.3,3.4,96,0.06,,,0.23,VWS V14.01,2013-05-17 14:58:00,
2013-05-17 10:00:00,66.0,64.8,29.90,South,186,2.3,3.5,96,0.06,,,0.23,VWS V14.01,2013-05-17 15:00:00,
2013-05-17 10:13:00,66.2,65.0,29.90,SW,215,4.6,4.6,96,0.04,,,0.23,VWS V14.01,2013-05-17 15:13:00,
2013-05-17 10:15:00,66.2,65.0,29.90,SW,215,4.6,4.6,96,0.04,,,0.23,VWS V14.01,2013-05-17 15:15:00,
2013-05-17 10:28:00,66.8,65.6,29.91,South,190,2.3,5.8,96,0.02,,,0.23,VWS V14.01,2013-05-17 15:28:00,
2013-05-17 10:30:00,66.8,65.6,29.91,South,190,2.3,5.8,96,0.02,,,0.23,VWS V14.01,2013-05-17 15:30:00,
2013-05-17 10:43:00,67.7,66.5,29.91,SSW,198,3.4,6.9,96,0.02,,,0.23,VWS V14.01,2013-05-17 15:43:00,
2013-05-17 10:45:00,67.7,66.5,29.91,SSW,198,3.5,6.9,96,0.02,,,0.23,VWS V14.01,2013-05-17 15:45:00,
2013-05-17 10:58:00,68.1,66.6,29.91,South,183,3.4,6.9,95,0.00,,,0.23,VWS V14.01,2013-05-17 15:58:00,
2013-05-17 11:00:00,68.1,66.6,29.91,South,183,3.5,6.9,95,0.00,,,0.23,VWS V14.01,2013-05-17 16:00:00,
2013-05-17 11:13:00,68.6,67.1,29.91,SSE,165,4.6,5.8,95,0.00,,,0.23,VWS V14.01,2013-05-17 16:13:00,
2013-05-17 11:15:00,68.6,67.1,29.91,SSE,165,4.6,5.8,95,0.00,,,0.23,VWS V14.01,2013-05-17 16:15:00,
2013-05-17 11:28:00,69.3,67.8,29.91,WSW,256,2.3,5.8,95,0.00,,,0.23,VWS V14.01,2013-05-17 16:28:00,
2013-05-17 11:30:00,69.3,67.8,29.91,WSW,256,2.3,5.8,95,0.00,,,0.23,VWS V14.01,2013-05-17 16:30:00,
2013-05-17 11:43:00,69.7,67.9,29.91,South,172,2.3,8.1,94,0.00,,,0.23,VWS V14.01,2013-05-17 16:43:00,
2013-05-17 11:45:00,69.7,67.9,29.91,South,172,2.3,8.1,94,0.00,,,0.23,VWS V14.01,2013-05-17 16:45:00,
2013-05-17 11:58:00,70.0,67.9,29.91,South,188,3.4,9.2,93,0.00,,,0.23,VWS V14.01,2013-05-17 16:58:00,
2013-05-17 12:00:00,70.0,67.9,29.91,South,188,3.5,9.2,93,0.00,,,0.23,VWS V14.01,2013-05-17 17:00:00,
2013-05-17 12:13:00,70.4,68.0,29.91,SE,143,5.8,9.2,92,0.00,,,0.23,VWS V14.01,2013-05-17 17:13:00,
2013-05-17 12:15:00,70.4,68.0,29.91,SE,143,5.8,9.2,92,0.00,,,0.23,VWS V14.01,2013-05-17 17:15:00,
2013-05-17 12:28:00,70.9,68.2,29.91,South,187,3.4,8.1,91,0.00,,,0.23,VWS V14.01,2013-05-17 17:28:00,
2013-05-17 12:30:00,70.9,68.2,29.91,South,187,3.5,8.1,91,0.00,,,0.23,VWS V14.01,2013-05-17 17:30:00,
2013-05-17 12:43:00,72.0,68.6,29.91,West,260,1.1,10.3,89,0.00,,,0.23,VWS V14.01,2013-05-17 17:43:00,
2013-05-17 12:45:00,72.0,68.6,29.91,West,260,1.1,10.4,89,0.00,,,0.23,VWS V14.01,2013-05-17 17:45:00,
2013-05-17 12:58:00,72.4,68.3,29.91,SSE,153,0.0,10.3,87,0.00,,,0.23,VWS V14.01,2013-05-17 17:58:00,
2013-05-17 13:00:00,72.4,68.3,29.91,SSE,153,0.0,10.4,87,0.00,,,0.23,VWS V14.01,2013-05-17 18:00:00,
2013-05-17 13:13:00,72.6,68.8,29.91,South,169,0.0,9.2,88,0.00,,,0.23,VWS V14.01,2013-05-17 18:13:00,
2013-05-17 13:15:00,72.6,68.8,29.91,South,169,0.0,9.2,88,0.00,,,0.23,VWS V14.01,2013-05-17 18:15:00,
2013-05-17 13:28:00,73.8,69.3,29.91,SSW,207,2.3,8.1,86,0.00,,,0.23,VWS V14.01,2013-05-17 18:28:00,
2013-05-17 13:30:00,73.8,69.4,29.91,SSW,207,2.3,8.1,86,0.00,,,0.23,VWS V14.01,2013-05-17 18:30:00,
2013-05-17 13:43:00,75.3,69.4,29.91,SSW,198,5.8,10.3,82,0.00,,,0.23,VWS V14.01,2013-05-17 18:43:00,
2013-05-17 13:45:00,75.3,69.4,29.91,SSW,198,5.8,10.4,82,0.00,,,0.23,VWS V14.01,2013-05-17 18:45:00,
2013-05-17 13:58:00,77.6,70.2,29.91,NW,319,1.1,9.2,78,0.00,,,0.23,VWS V14.01,2013-05-17 18:58:00,
2013-05-17 14:00:00,77.6,70.2,29.91,NW,319,1.1,9.2,78,0.00,,,0.23,VWS V14.01,2013-05-17 19:00:00,
2013-05-17 14:13:00,77.4,68.9,29.90,SW,222,8.1,10.3,75,0.00,,,0.23,VWS V14.01,2013-05-17 19:13:00,
2013-05-17 14:15:00,77.4,68.9,29.90,SW,222,8.1,10.4,75,0.00,,,0.23,VWS V14.01,2013-05-17 19:15:00,
2013-05-17 14:28:00,77.9,68.6,29.90,SE,145,4.6,9.2,73,0.00,,,0.23,VWS V14.01,2013-05-17 19:28:00,
2013-05-17 14:30:00,77.9,68.6,29.90,SE,145,4.6,9.2,73,0.00,,,0.23,VWS V14.01,2013-05-17 19:30:00,
2013-05-17 14:43:00,77.9,68.6,29.90,South,179,5.8,11.5,73,0.00,,,0.23,VWS V14.01,2013-05-17 19:43:00,
2013-05-17 14:45:00,77.9,68.6,29.90,South,179,5.8,11.5,73,0.00,,,0.23,VWS V14.01,2013-05-17 19:45:00,
2013-05-17 14:58:00,78.8,68.6,29.89,WNW,290,1.1,8.1,71,0.00,,,0.23,VWS V14.01,2013-05-17 19:58:00,
2013-05-17 15:00:00,78.8,68.6,29.89,WNW,290,1.1,8.1,71,0.00,,,0.23,VWS V14.01,2013-05-17 20:00:00,
2013-05-17 15:13:00,78.1,68.3,29.89,West,264,4.6,12.6,72,0.00,,,0.23,VWS V14.01,2013-05-17 20:13:00,
2013-05-17 15:15:00,78.1,68.3,29.89,West,264,4.6,12.6,72,0.00,,,0.23,VWS V14.01,2013-05-17 20:15:00,
2013-05-17 15:28:00,78.1,69.1,29.89,WSW,246,1.1,6.9,74,0.00,,,0.23,VWS V14.01,2013-05-17 20:28:00,
2013-05-17 15:30:00,78.1,69.1,29.89,WSW,246,1.1,6.9,74,0.00,,,0.23,VWS V14.01,2013-05-17 20:30:00,
2013-05-17 15:43:00,80.3,69.6,29.88,SSW,212,1.1,4.6,70,0.00,,,0.23,VWS V14.01,2013-05-17 20:43:00,
2013-05-17 15:45:00,80.3,69.6,29.88,SSW,212,1.1,4.6,70,0.00,,,0.23,VWS V14.01,2013-05-17 20:45:00,
2013-05-17 15:58:00,79.5,68.4,29.88,SW,234,0.0,9.2,69,0.00,,,0.23,VWS V14.01,2013-05-17 20:58:00,
2013-05-17 16:00:00,79.5,68.4,29.88,SW,234,0.0,9.2,69,0.00,,,0.23,VWS V14.01,2013-05-17 21:00:00,
2013-05-17 16:13:00,80.4,68.9,29.88,WSW,252,2.3,5.8,68,0.00,,,0.23,VWS V14.01,2013-05-17 21:13:00,
2013-05-17 16:15:00,80.4,68.9,29.88,WSW,252,2.3,5.8,68,0.00,,,0.23,VWS V14.01,2013-05-17 21:15:00,
2013-05-17 16:28:00,81.4,68.5,29.88,ESE,121,0.0,5.8,65,0.00,,,0.23,VWS V14.01,2013-05-17 21:28:00,
2013-05-17 16:43:00,80.8,68.4,29.88,SW,233,3.4,4.6,66,0.00,,,0.23,VWS V14.01,2013-05-17 21:43:00,
2013-05-17 16:58:00,80.7,67.8,29.88,SW,224,4.6,6.9,65,0.00,,,0.23,VWS V14.01,2013-05-17 21:58:00,
2013-05-17 17:00:00,80.7,67.8,29.88,SW,224,4.6,6.9,65,0.00,,,0.23,VWS V14.01,2013-05-17 22:00:00,
2013-05-17 17:13:00,82.1,68.7,29.88,South,170,1.1,9.2,64,0.00,,,0.23,VWS V14.01,2013-05-17 22:13:00,
2013-05-17 17:15:00,82.1,68.7,29.88,South,170,1.1,9.2,64,0.00,,,0.23,VWS V14.01,2013-05-17 22:15:00,
2013-05-17 17:28:00,81.5,68.2,29.88,SW,231,0.0,6.9,64,0.00,,,0.23,VWS V14.01,2013-05-17 22:28:00,
2013-05-17 17:30:00,81.5,68.2,29.88,SW,231,0.0,6.9,64,0.00,,,0.23,VWS V14.01,2013-05-17 22:30:00,
2013-05-17 17:43:00,79.9,67.5,29.88,SSE,150,0.0,8.1,66,0.00,,,0.23,VWS V14.01,2013-05-17 22:43:00,
2013-05-17 17:45:00,79.9,67.5,29.88,SSE,150,0.0,8.1,66,0.00,,,0.23,VWS V14.01,2013-05-17 22:45:00,
2013-05-17 17:58:00,80.7,68.3,29.88,WSW,240,1.1,5.8,66,0.00,,,0.23,VWS V14.01,2013-05-17 22:58:00,
2013-05-17 18:00:00,80.7,68.3,29.88,WSW,240,1.1,5.8,66,0.00,,,0.23,VWS V14.01,2013-05-17 23:00:00,
2013-05-17 18:13:00,81.2,67.9,29.88,South,170,3.4,5.8,64,0.00,,,0.23,VWS V14.01,2013-05-17 23:13:00,
2013-05-17 18:15:00,81.2,67.9,29.88,South,170,3.5,5.8,64,0.00,,,0.23,VWS V14.01,2013-05-17 23:15:00,
2013-05-17 18:28:00,80.8,67.9,29.88,WSW,249,2.3,5.8,65,0.00,,,0.23,VWS V14.01,2013-05-17 23:28:00,
2013-05-17 18:30:00,80.8,67.9,29.88,WSW,249,2.3,5.8,65,0.00,,,0.23,VWS V14.01,2013-05-17 23:30:00,
2013-05-17 18:43:00,79.5,67.2,29.89,SW,228,1.1,6.9,66,0.00,,,0.23,VWS V14.01,2013-05-17 23:43:00,
2013-05-17 18:45:00,79.5,67.2,29.89,SW,228,1.1,6.9,66,0.00,,,0.23,VWS V14.01,2013-05-17 23:45:00,
2013-05-17 18:58:00,78.1,67.5,29.89,WSW,248,0.0,2.3,70,0.00,,,0.23,VWS V14.01,2013-05-17 23:58:00,
2013-05-17 19:00:00,78.1,67.5,29.89,WSW,248,0.0,2.3,70,0.00,,,0.23,VWS V14.01,2013-05-18 00:00:00,
2013-05-17 19:13:00,77.6,67.9,29.89,SW,226,0.0,2.3,72,0.00,,,0.23,VWS V14.01,2013-05-18 00:13:00,
2013-05-17 19:15:00,77.6,67.9,29.89,SW,226,0.0,2.3,72,0.00,,,0.23,VWS V14.01,2013-05-18 00:15:00,
2013-05-17 19:28:00,76.9,67.6,29.89,WSW,250,0.0,1.1,73,0.00,,,0.23,VWS V14.01,2013-05-18 00:28:00,
2013-05-17 19:30:00,76.9,67.6,29.89,WSW,250,0.0,1.1,73,0.00,,,0.23,VWS V14.01,2013-05-18 00:30:00,
2013-05-17 19:43:00,76.2,67.3,29.90,WSW,250,0.0,0.0,74,0.00,,,0.23,VWS V14.01,2013-05-18 00:43:00,
2013-05-17 19:45:00,76.2,67.3,29.90,WSW,250,0.0,0.0,74,0.00,,,0.23,VWS V14.01,2013-05-18 00:45:00,
2013-05-17 19:58:00,75.1,67.0,29.90,WSW,250,0.0,0.0,76,0.00,,,0.23,VWS V14.01,2013-05-18 00:58:00,
2013-05-17 20:00:00,75.1,67.0,29.90,WSW,250,0.0,0.0,76,0.00,,,0.23,VWS V14.01,2013-05-18 01:00:00,
2013-05-17 20:13:00,73.8,67.2,29.90,WSW,250,0.0,0.0,80,0.00,,,0.23,VWS V14.01,2013-05-18 01:13:00,
2013-05-17 20:15:00,73.8,67.2,29.90,WSW,250,0.0,0.0,80,0.00,,,0.23,VWS V14.01,2013-05-18 01:15:00,
2013-05-17 20:28:00,72.6,67.2,29.90,WSW,250,0.0,0.0,83,0.00,,,0.23,VWS V14.01,2013-05-18 01:28:00,
2013-05-17 20:30:00,72.6,67.2,29.90,WSW,250,0.0,0.0,83,0.00,,,0.23,VWS V14.01,2013-05-18 01:30:00,
2013-05-17 20:43:00,71.6,67.2,29.90,WSW,250,0.0,0.0,86,0.00,,,0.23,VWS V14.01,2013-05-18 01:43:00,
2013-05-17 20:45:00,71.6,67.2,29.90,WSW,250,0.0,0.0,86,0.00,,,0.23,VWS V14.01,2013-05-18 01:45:00,
2013-05-17 20:58:00,70.8,67.1,29.91,WSW,250,0.0,0.0,88,0.00,,,0.23,VWS V14.01,2013-05-18 01:58:00,
2013-05-17 21:00:00,70.8,67.1,29.91,WSW,250,0.0,0.0,88,0.00,,,0.23,VWS V14.01,2013-05-18 02:00:00,
2013-05-17 21:13:00,69.9,66.5,29.91,WSW,250,0.0,0.0,89,0.00,,,0.23,VWS V14.01,2013-05-18 02:13:00,
2013-05-17 21:15:00,69.9,66.5,29.91,WSW,250,0.0,0.0,89,0.00,,,0.23,VWS V14.01,2013-05-18 02:15:00,
2013-05-17 21:28:00,69.2,66.2,29.91,WSW,250,0.0,0.0,90,0.00,,,0.23,VWS V14.01,2013-05-18 02:28:00,
2013-05-17 21:30:00,69.2,66.2,29.91,WSW,250,0.0,0.0,90,0.00,,,0.23,VWS V14.01,2013-05-18 02:30:00,
2013-05-17 21:43:00,68.6,65.9,29.92,WSW,250,0.0,0.0,91,0.00,,,0.23,VWS V14.01,2013-05-18 02:43:00,
2013-05-17 21:45:00,68.6,65.9,29.92,WSW,250,0.0,0.0,91,0.00,,,0.23,VWS V14.01,2013-05-18 02:45:00,
2013-05-17 21:58:00,68.4,65.7,29.92,WSW,250,0.0,0.0,91,0.00,,,0.23,VWS V14.01,2013-05-18 02:58:00,
2013-05-17 22:00:00,68.4,65.7,29.92,WSW,250,0.0,0.0,91,0.00,,,0.23,VWS V14.01,2013-05-18 03:00:00,
2013-05-17 22:13:00,67.7,65.3,29.93,WSW,250,0.0,0.0,92,0.00,,,0.23,VWS V14.01,2013-05-18 03:13:00,
2013-05-17 22:15:00,67.7,65.3,29.93,WSW,250,0.0,0.0,92,0.00,,,0.23,VWS V14.01,2013-05-18 03:15:00,
2013-05-17 22:28:00,67.4,65.3,29.93,WSW,250,0.0,0.0,93,0.00,,,0.23,VWS V14.01,2013-05-18 03:28:00,
2013-05-17 22:30:00,67.4,65.3,29.93,WSW,250,0.0,0.0,93,0.00,,,0.23,VWS V14.01,2013-05-18 03:30:00,
2013-05-17 22:43:00,67.0,64.9,29.94,WSW,250,0.0,0.0,93,0.00,,,0.23,VWS V14.01,2013-05-18 03:43:00,
2013-05-17 22:45:00,67.0,64.9,29.94,WSW,250,0.0,0.0,93,0.00,,,0.23,VWS V14.01,2013-05-18 03:45:00,
2013-05-17 22:58:00,66.9,65.1,29.93,WSW,250,0.0,0.0,94,0.00,,,0.23,VWS V14.01,2013-05-18 03:58:00,
2013-05-17 23:00:00,66.9,65.1,29.93,WSW,250,0.0,0.0,94,0.00,,,0.23,VWS V14.01,2013-05-18 04:00:00,
2013-05-17 23:13:00,66.6,64.8,29.94,WSW,250,0.0,0.0,94,0.00,,,0.23,VWS V14.01,2013-05-18 04:13:00,
2013-05-17 23:15:00,66.6,64.8,29.94,WSW,250,0.0,0.0,94,0.00,,,0.23,VWS V14.01,2013-05-18 04:15:00,
2013-05-17 23:28:00,66.2,64.7,29.93,WSW,250,0.0,0.0,95,0.00,,,0.23,VWS V14.01,2013-05-18 04:28:00,
2013-05-17 23:30:00,66.2,64.7,29.93,WSW,250,0.0,0.0,95,0.00,,,0.23,VWS V14.01,2013-05-18 04:30:00,
2013-05-17 23:43:00,66.0,64.5,29.93,WSW,250,0.0,0.0,95,0.00,,,0.23,VWS V14.01,2013-05-18 04:43:00,
2013-05-17 23:45:00,66.0,64.5,29.93,WSW,250,0.0,0.0,95,0.00,,,0.23,VWS V14.01,2013-05-18 04:45:00,
2013-05-17 23:58:00,65.8,64.3,29.94,WSW,250,0.0,0.0,95,0.00,,,0.23,VWS V14.01,2013-05-18 04:58:00,